createdAt,value
2023-01-26T00:01:01.967Z,0.12
2023-01-26T00:04:02.113Z,0.12
2023-01-26T00:07:02.025Z,0.16
2023-01-26T00:10:01.999Z,0.01
2023-01-26T00:13:02.027Z,0.15
2023-01-26T00:16:01.977Z,0.06
2023-01-26T00:19:01.984Z,0.11
2023-01-26T00:22:01.966Z,0.24
2023-01-26T00:25:02.021Z,0.19
2023-01-26T00:28:01.978Z,0.33
2023-01-26T00:31:07.042Z,0.33
2023-01-26T00:34:03.056Z,0.43
2023-01-26T00:37:02.014Z,0.34
2023-01-26T00:40:02.040Z,0.38
2023-01-26T00:43:02.006Z,0.26
2023-01-26T00:46:02.061Z,0.22
2023-01-26T00:49:02.031Z,0.21
2023-01-26T00:52:02.041Z,0.13
2023-01-26T00:55:02.058Z,0.28
2023-01-26T00:58:01.997Z,0.29
2023-01-26T01:01:02.084Z,0.53
2023-01-26T01:04:01.980Z,0.32
2023-01-26T01:07:02.012Z,0.21
2023-01-26T01:10:02.060Z,0.13
2023-01-26T01:13:02.075Z,0.09
2023-01-26T01:16:02.019Z,0.28
2023-01-26T01:19:01.977Z,0.14
2023-01-26T01:22:02.015Z,0.21
2023-01-26T01:25:02.009Z,0.43
2023-01-26T01:28:02.056Z,0.28
2023-01-26T01:31:02.051Z,0.24
2023-01-26T01:34:02.103Z,0.33
2023-01-26T01:37:02.088Z,0.28
2023-01-26T01:40:02.060Z,0.15
2023-01-26T01:43:02.036Z,0.11
2023-01-26T01:46:02.032Z,0.01
2023-01-26T01:49:02.000Z,0.07
2023-01-26T01:52:02.157Z,0.1
2023-01-26T01:55:02.237Z,0.02
2023-01-26T01:58:02.092Z,0
2023-01-26T02:01:02.058Z,0
2023-01-26T02:04:02.082Z,0.03
2023-01-26T02:07:02.086Z,0.11
2023-01-26T02:10:02.121Z,0.15
2023-01-26T02:13:02.050Z,0.32
2023-01-26T02:16:02.078Z,0.32
2023-01-26T02:19:02.129Z,0.51
2023-01-26T02:22:02.124Z,0.25
2023-01-26T02:25:02.077Z,0.01
2023-01-26T02:28:02.142Z,0.29
2023-01-26T02:31:02.198Z,0.32
2023-01-26T02:34:02.132Z,0.11
2023-01-26T02:37:02.140Z,0.25
2023-01-26T02:40:02.143Z,0.34
2023-01-26T02:43:02.178Z,0.21
2023-01-26T02:46:02.109Z,0.02
2023-01-26T02:49:02.110Z,0.22
2023-01-26T02:52:02.131Z,0.15
2023-01-26T02:55:02.136Z,0.31
2023-01-26T02:58:02.086Z,0.43
2023-01-26T03:01:02.207Z,0.24
2023-01-26T03:04:02.140Z,0.26
2023-01-26T03:07:02.129Z,0.3
2023-01-26T03:10:02.194Z,0.26
2023-01-26T03:13:02.155Z,0.31
2023-01-26T03:16:02.211Z,0.21
2023-01-26T03:19:02.593Z,0.21
2023-01-26T03:22:02.181Z,0.67
2023-01-26T03:25:02.153Z,0.22
2023-01-26T03:28:02.174Z,0.34
2023-01-26T03:31:02.198Z,0.36
2023-01-26T03:34:02.174Z,0.19
2023-01-26T03:37:02.129Z,0.2
2023-01-26T03:40:02.112Z,0.44
2023-01-26T03:43:02.146Z,0.36
2023-01-26T03:46:02.136Z,0.47
2023-01-26T03:49:02.180Z,0.63
2023-01-26T03:52:02.140Z,0.4
2023-01-26T03:55:02.272Z,0.52
2023-01-26T03:58:02.171Z,0.58
2023-01-26T04:01:02.141Z,0.6
2023-01-26T04:04:02.228Z,0.43
2023-01-26T04:07:02.123Z,0.52
2023-01-26T04:10:02.217Z,0.48
2023-01-26T04:13:02.135Z,0.43
2023-01-26T04:16:02.257Z,0.41
2023-01-26T04:19:02.190Z,0.45
2023-01-26T04:22:02.180Z,0.5
2023-01-26T04:25:02.191Z,0.58
2023-01-26T04:28:02.190Z,0.55
2023-01-26T04:31:02.175Z,0.47
2023-01-26T04:34:02.223Z,0.24
2023-01-26T04:37:02.168Z,0.42
2023-01-26T04:40:02.292Z,0.28
2023-01-26T04:43:02.166Z,0.12
2023-01-26T04:46:02.250Z,0.29
2023-01-26T04:49:02.383Z,0.36
2023-01-26T04:52:02.236Z,0.13
2023-01-26T04:55:02.174Z,0.26
2023-01-26T04:58:03.677Z,0.37
2023-01-26T05:01:02.186Z,0.36
2023-01-26T05:04:02.295Z,0.51
2023-01-26T05:07:02.285Z,0.29
2023-01-26T05:10:02.308Z,0.58
2023-01-26T05:13:02.191Z,0.35
2023-01-26T05:16:02.236Z,0.6
2023-01-26T05:19:02.270Z,0.34
2023-01-26T05:22:02.282Z,0.24
2023-01-26T05:25:02.220Z,0.23
2023-01-26T05:28:02.202Z,0.32
2023-01-26T05:31:02.206Z,0.04
2023-01-26T05:34:02.276Z,0.21
2023-01-26T05:37:02.259Z,0.4
2023-01-26T05:40:02.221Z,0.57
2023-01-26T05:43:02.262Z,0.57
2023-01-26T05:46:02.246Z,0.09
2023-01-26T05:49:02.238Z,0
2023-01-26T05:52:02.272Z,0.08
2023-01-26T05:55:02.318Z,0.17
2023-01-26T05:58:02.312Z,0.24
2023-01-26T06:01:02.291Z,0.12
2023-01-26T06:04:02.308Z,0.04
2023-01-26T06:07:02.275Z,0.11
2023-01-26T06:10:02.328Z,0.11
2023-01-26T06:13:02.287Z,0.01
2023-01-26T06:16:02.247Z,0.01
2023-01-26T06:19:02.250Z,0.07
2023-01-26T06:22:02.820Z,0.13
2023-01-26T06:25:03.217Z,0.19
2023-01-26T06:28:02.280Z,0.39
2023-01-26T06:31:02.384Z,0.28
2023-01-26T06:34:02.331Z,0.31
2023-01-26T06:37:02.311Z,0.22
2023-01-26T06:40:02.254Z,0.16
2023-01-26T06:43:02.591Z,0.13
2023-01-26T06:46:02.299Z,0
2023-01-26T06:49:02.386Z,0.13
2023-01-26T06:52:02.281Z,0.14
2023-01-26T06:55:02.304Z,0.01
2023-01-26T06:58:02.340Z,0.11
2023-01-26T07:01:02.315Z,0.11
2023-01-26T07:04:02.381Z,0.08
2023-01-26T07:07:02.326Z,0.07
2023-01-26T07:10:02.276Z,0.24
2023-01-26T07:13:02.279Z,0.07
2023-01-26T07:16:02.400Z,0.17
2023-01-26T07:19:02.391Z,0.21
2023-01-26T07:22:02.405Z,0.16
2023-01-26T07:25:02.349Z,0.35
2023-01-26T07:28:02.370Z,0.28
2023-01-26T07:31:02.301Z,0.42
2023-01-26T07:34:02.361Z,0.17
2023-01-26T07:37:02.336Z,0.04
2023-01-26T07:40:02.397Z,0.38
2023-01-26T07:43:02.387Z,0.45
2023-01-26T07:46:02.315Z,0.28
2023-01-26T07:49:02.328Z,0.16
2023-01-26T07:52:04.524Z,0.06
2023-01-26T07:55:02.424Z,0
2023-01-26T07:58:02.308Z,0.17
2023-01-26T08:01:02.375Z,0.45
2023-01-26T08:04:05.057Z,0.11
2023-01-26T08:07:02.451Z,0.16
2023-01-26T08:10:02.406Z,0.24
2023-01-26T08:13:02.441Z,0.05
2023-01-26T08:16:02.442Z,0
2023-01-26T08:19:02.332Z,0
2023-01-26T08:22:02.357Z,0.09
2023-01-26T08:25:02.467Z,0.21
2023-01-26T08:28:02.529Z,0.14
2023-01-26T08:31:02.406Z,0.28
2023-01-26T08:34:02.447Z,0.32
2023-01-26T08:37:02.410Z,0.29
2023-01-26T08:40:02.477Z,0.09
2023-01-26T08:43:02.481Z,0.19
2023-01-26T08:46:02.396Z,0.25
2023-01-26T08:49:02.411Z,0.3
2023-01-26T08:52:02.376Z,0.29
2023-01-26T08:55:02.395Z,0.19
2023-01-26T08:58:02.463Z,0.4
2023-01-26T09:01:02.452Z,0.31
2023-01-26T09:04:02.449Z,0.09
2023-01-26T09:07:02.369Z,0.01
2023-01-26T09:10:02.467Z,0.18
2023-01-26T09:13:02.467Z,0.52
2023-01-26T09:16:02.452Z,0.29
2023-01-26T09:19:02.417Z,0.39
2023-01-26T09:22:02.393Z,0.49
2023-01-26T09:25:02.491Z,0.46
2023-01-26T09:28:04.017Z,0.5
2023-01-26T09:31:02.509Z,0.42
2023-01-26T09:34:02.444Z,0.33
2023-01-26T09:37:02.524Z,0.09
2023-01-26T09:40:02.502Z,0.49
2023-01-26T09:43:02.472Z,0.71
2023-01-26T09:46:02.511Z,0.52
2023-01-26T09:49:02.501Z,0.7
2023-01-26T09:52:02.435Z,0.65
2023-01-26T09:55:02.517Z,0.61
2023-01-26T09:58:02.433Z,0.41
2023-01-26T10:01:02.566Z,0.54
2023-01-26T10:04:02.500Z,0.46
2023-01-26T10:07:02.444Z,0.82
2023-01-26T10:10:02.544Z,0.83
2023-01-26T10:13:02.449Z,0.67
2023-01-26T10:16:02.517Z,0.82
2023-01-26T10:19:02.412Z,1.59
2023-01-26T10:22:02.612Z,0.72
2023-01-26T10:25:02.421Z,0.31
2023-01-26T10:28:02.472Z,0.16
2023-01-26T10:31:02.557Z,0.36
2023-01-26T10:34:02.495Z,0.38
2023-01-26T10:37:02.460Z,0.12
2023-01-26T10:40:02.545Z,0.12
2023-01-26T10:43:02.470Z,0.4
2023-01-26T10:46:02.581Z,0.68
2023-01-26T10:49:02.547Z,0.78
2023-01-26T10:52:02.497Z,1.1
2023-01-26T10:55:02.512Z,1.17
2023-01-26T10:58:02.550Z,1.19
2023-01-26T11:01:02.590Z,1.05
2023-01-26T11:04:02.517Z,1.18
2023-01-26T11:07:02.488Z,0.79
2023-01-26T11:10:02.553Z,1.39
2023-01-26T11:13:02.600Z,1.38
2023-01-26T11:16:02.507Z,1.16
2023-01-26T11:19:02.587Z,1.28
2023-01-26T11:22:02.495Z,1.06
2023-01-26T11:25:02.559Z,1.17
2023-01-26T11:28:02.609Z,1.32
2023-01-26T11:31:02.628Z,1.19
2023-01-26T11:34:02.484Z,1.47
2023-01-26T11:37:02.593Z,1.27
2023-01-26T11:40:02.615Z,1.45
2023-01-26T11:43:02.548Z,1.27
2023-01-26T11:46:02.622Z,1.07
2023-01-26T11:49:02.577Z,0.92
2023-01-26T11:52:02.504Z,1.08
2023-01-26T11:55:02.634Z,1.11
2023-01-26T11:58:02.654Z,1.09
2023-01-26T12:01:02.519Z,1.24
2023-01-26T12:04:02.603Z,1.19
2023-01-26T12:07:02.624Z,1.06
2023-01-26T12:10:02.596Z,0.77
2023-01-26T12:13:02.543Z,1.02
2023-01-26T12:16:02.621Z,1.13
2023-01-26T12:19:10.586Z,0.74
2023-01-26T12:22:02.670Z,0.84
2023-01-26T12:25:18.427Z,1.13
2023-01-26T12:28:02.631Z,0.89
2023-01-26T12:31:02.691Z,0.81
2023-01-26T12:34:02.661Z,0.98
2023-01-26T12:37:02.669Z,0.76
2023-01-26T12:40:02.713Z,0.53
2023-01-26T12:43:02.616Z,0.55
2023-01-26T12:46:02.648Z,0.79
2023-01-26T12:49:02.625Z,0.59
2023-01-26T12:52:02.582Z,0.85
2023-01-26T12:55:02.595Z,0.88
2023-01-26T12:58:02.583Z,0.88
2023-01-26T13:01:02.704Z,0.93
2023-01-26T13:04:02.669Z,1.37
2023-01-26T13:07:02.579Z,1.08
2023-01-26T13:10:02.721Z,1.01
2023-01-26T13:13:02.659Z,0.96
2023-01-26T13:16:02.880Z,0.67
2023-01-26T13:19:03.049Z,0.67
2023-01-26T13:22:02.624Z,0.73
2023-01-26T13:25:02.731Z,0.73
2023-01-26T13:28:02.656Z,0.69
2023-01-26T13:31:02.803Z,0.82
2023-01-26T13:34:02.680Z,0.62
2023-01-26T13:37:02.631Z,0.79
2023-01-26T13:40:02.779Z,0.89
2023-01-26T13:43:02.624Z,0.86
2023-01-26T13:46:02.723Z,0.6
2023-01-26T13:49:02.631Z,0.59
2023-01-26T13:52:02.701Z,0.66
2023-01-26T13:55:02.729Z,0.47
2023-01-26T13:58:02.675Z,0.75
2023-01-26T14:01:02.705Z,0.82
2023-01-26T14:04:02.698Z,0.56
2023-01-26T14:07:02.629Z,0.83
2023-01-26T14:10:02.716Z,1.08
2023-01-26T14:13:05.063Z,0.82
2023-01-26T14:16:02.809Z,0.59
2023-01-26T14:19:02.690Z,0.49
2023-01-26T14:22:02.712Z,0.81
2023-01-26T14:25:02.789Z,0.68
2023-01-26T14:28:02.683Z,0.57
2023-01-26T14:31:02.816Z,0.55
2023-01-26T14:34:02.662Z,0.75
2023-01-26T14:37:02.690Z,0.83
2023-01-26T14:40:02.717Z,0.44
2023-01-26T14:43:02.726Z,0.64
2023-01-26T14:46:02.696Z,1.11
2023-01-26T14:49:05.047Z,0.56
2023-01-26T14:52:02.739Z,0.13
2023-01-26T14:55:02.767Z,0.62
2023-01-26T14:58:02.713Z,0.55
2023-01-26T15:01:02.752Z,0.84
2023-01-26T15:04:02.702Z,0.99
2023-01-26T15:07:02.744Z,0.99
2023-01-26T15:10:02.828Z,1.05
2023-01-26T15:13:02.758Z,0.69
2023-01-26T15:16:02.749Z,0.76
2023-01-26T15:19:02.786Z,0.81
2023-01-26T15:22:02.685Z,0.68
2023-01-26T15:25:02.741Z,0.65
2023-01-26T15:28:02.689Z,1.09
2023-01-26T15:31:02.833Z,0.76
2023-01-26T15:34:02.761Z,0.69
2023-01-26T15:37:02.801Z,0.88
2023-01-26T15:40:02.794Z,1.05
2023-01-26T15:43:02.706Z,0.92
2023-01-26T15:46:02.797Z,0.97
2023-01-26T15:49:02.745Z,0.72
2023-01-26T15:52:02.745Z,0.9
2023-01-26T15:55:02.831Z,0.93
2023-01-26T15:58:02.711Z,0.94
2023-01-26T16:01:02.753Z,0.73
2023-01-26T16:04:02.800Z,0.71
2023-01-26T16:07:02.807Z,0.97
2023-01-26T16:10:02.805Z,0.78
2023-01-26T16:13:02.809Z,0.82
2023-01-26T16:16:02.752Z,0.81
2023-01-26T16:19:02.824Z,0.74
2023-01-26T16:22:02.810Z,0.55
2023-01-26T16:25:02.857Z,0.73
2023-01-26T16:28:02.737Z,0.83
2023-01-26T16:31:02.822Z,0.82
2023-01-26T16:34:02.888Z,0.79
2023-01-26T16:37:02.822Z,0.73
2023-01-26T16:40:02.812Z,0.76
2023-01-26T16:43:02.784Z,0.82
2023-01-26T16:46:02.871Z,0.68
2023-01-26T16:49:02.834Z,0.77
2023-01-26T16:52:02.790Z,0.68
2023-01-26T16:55:02.987Z,0.71
2023-01-26T16:58:02.923Z,0.64
2023-01-26T17:01:02.907Z,0.96
2023-01-26T17:04:02.899Z,1.1
2023-01-26T17:07:02.788Z,1.02
2023-01-26T17:10:02.854Z,0.84
2023-01-26T17:13:02.884Z,0.85
2023-01-26T17:16:02.819Z,0.6
2023-01-26T17:19:02.869Z,0.63
2023-01-26T17:22:02.877Z,0.57
2023-01-26T17:25:03.133Z,0.6
2023-01-26T17:28:02.908Z,0.56
2023-01-26T17:31:02.883Z,0.77
2023-01-26T17:34:02.894Z,0.81
2023-01-26T17:37:02.853Z,1
2023-01-26T17:40:03.184Z,0.96
2023-01-26T17:43:02.929Z,0.83
2023-01-26T17:46:02.941Z,0.57
2023-01-26T17:49:02.840Z,0.61
2023-01-26T17:52:02.874Z,0.53
2023-01-26T17:55:02.992Z,0.61
2023-01-26T17:58:02.912Z,0.57
2023-01-26T18:01:02.846Z,0.61
2023-01-26T18:04:02.865Z,0.5
2023-01-26T18:07:02.881Z,0.46
2023-01-26T18:10:03.092Z,0.6
2023-01-26T18:13:02.908Z,0.94
2023-01-26T18:16:02.937Z,0.88
2023-01-26T18:19:02.960Z,0.62
2023-01-26T18:22:02.912Z,0.53
2023-01-26T18:25:02.950Z,0.44
2023-01-26T18:28:02.938Z,0.52
2023-01-26T18:31:02.919Z,0.43
2023-01-26T18:34:02.858Z,0.36
2023-01-26T18:37:02.896Z,0.42
2023-01-26T18:40:03.072Z,0.52
2023-01-26T18:43:02.857Z,0.49
2023-01-26T18:46:02.974Z,0.43
2023-01-26T18:49:03.024Z,0.37
2023-01-26T18:52:02.892Z,0.75
2023-01-26T18:55:02.847Z,0.57
2023-01-26T18:58:02.931Z,0.74
2023-01-26T19:01:03.039Z,0.73
2023-01-26T19:04:02.872Z,0.48
2023-01-26T19:07:02.919Z,0.37
2023-01-26T19:10:02.971Z,1.15
2023-01-26T19:13:02.998Z,1.02
2023-01-26T19:16:02.924Z,0.59
2023-01-26T19:19:02.892Z,0.5
2023-01-26T19:22:02.951Z,0.46
2023-01-26T19:25:02.924Z,0.28
2023-01-26T19:28:02.924Z,0.44
2023-01-26T19:31:03.044Z,0.42
2023-01-26T19:34:02.931Z,0.45
2023-01-26T19:37:02.936Z,0.53
2023-01-26T19:40:03.204Z,0.47
2023-01-26T19:43:03.053Z,0.34
2023-01-26T19:46:02.984Z,0.34
2023-01-26T19:49:02.957Z,0.45
2023-01-26T19:52:03.022Z,0.56
2023-01-26T19:55:03.027Z,0.58
2023-01-26T19:58:02.986Z,0.43
2023-01-26T20:01:03.032Z,0.34
2023-01-26T20:04:03.029Z,0.39
2023-01-26T20:07:03.016Z,0.44
2023-01-26T20:10:03.004Z,0.59
2023-01-26T20:13:03.004Z,0.56
2023-01-26T20:16:02.984Z,0.35
2023-01-26T20:19:03.010Z,0.45
2023-01-26T20:22:03.015Z,0.41
2023-01-26T20:25:02.977Z,0.52
2023-01-26T20:28:03.038Z,0.27
2023-01-26T20:31:03.076Z,0.15
2023-01-26T20:34:02.995Z,0.19
2023-01-26T20:37:03.022Z,0.53
2023-01-26T20:40:03.079Z,0.57
2023-01-26T20:43:03.064Z,0.48
2023-01-26T20:46:03.052Z,0.26
2023-01-26T20:49:03.019Z,0.53
2023-01-26T20:52:03.062Z,0.37
2023-01-26T20:55:03.036Z,0.33
2023-01-26T20:58:03.773Z,0.28
2023-01-26T21:01:03.039Z,0.25
2023-01-26T21:04:03.002Z,0.33
2023-01-26T21:07:03.516Z,0.31
2023-01-26T21:10:03.217Z,0.55
2023-01-26T21:13:03.071Z,0.63
2023-01-26T21:16:03.293Z,0.67
2023-01-26T21:19:03.047Z,0.87
2023-01-26T21:22:02.949Z,1.11
2023-01-26T21:25:03.111Z,0.74
2023-01-26T21:28:03.063Z,0.93
2023-01-26T21:31:03.082Z,0.64
2023-01-26T21:34:03.082Z,0.89
2023-01-26T21:37:03.085Z,1.09
2023-01-26T21:40:03.126Z,1.12
2023-01-26T21:43:03.017Z,1.18
2023-01-26T21:46:03.067Z,0.77
2023-01-26T21:49:03.013Z,0.7
2023-01-26T21:52:03.096Z,1.14
2023-01-26T21:55:03.061Z,1.09
2023-01-26T21:58:03.010Z,1.02
2023-01-26T22:01:03.164Z,0.84
2023-01-26T22:04:03.046Z,1.02
2023-01-26T22:07:03.026Z,0.89
2023-01-26T22:10:03.158Z,0.91
2023-01-26T22:13:03.039Z,1.13
2023-01-26T22:16:04.479Z,0.8
2023-01-26T22:19:03.043Z,1.06
2023-01-26T22:22:03.153Z,0.91
2023-01-26T22:25:03.126Z,0.59
2023-01-26T22:28:03.044Z,0.81
2023-01-26T22:31:03.434Z,0.74
2023-01-26T22:34:03.080Z,0.91
2023-01-26T22:37:03.044Z,1.03
2023-01-26T22:40:03.318Z,1.14
2023-01-26T22:43:03.126Z,0.78
2023-01-26T22:46:03.141Z,0.65
2023-01-26T22:49:03.114Z,0.56
2023-01-26T22:52:03.081Z,0.53
2023-01-26T22:55:03.111Z,0.47
2023-01-26T22:58:03.140Z,0.82
2023-01-26T23:01:03.114Z,0.69
2023-01-26T23:04:03.132Z,0.64
2023-01-26T23:07:03.064Z,0.78
2023-01-26T23:10:03.191Z,0.69
2023-01-26T23:13:03.087Z,0.49
2023-01-26T23:16:03.133Z,0.69
2023-01-26T23:19:03.100Z,0.3
2023-01-26T23:22:03.075Z,0.45
2023-01-26T23:25:03.078Z,0.62
2023-01-26T23:28:03.104Z,0.75
2023-01-26T23:31:03.169Z,0.59
2023-01-26T23:34:03.120Z,0.73
2023-01-26T23:37:03.102Z,1.02
2023-01-26T23:40:03.234Z,0.8
2023-01-26T23:43:15.573Z,0.85
2023-01-26T23:46:03.134Z,0.6
2023-01-26T23:49:03.133Z,0.98
2023-01-26T23:52:03.089Z,0.99
2023-01-26T23:55:03.137Z,0.85
2023-01-26T23:58:03.101Z,0.59
